sensor_id;sensor_type;location;lat;lon;timestamp;P1;durP1;ratioP1;P2;durP2;ratioP2
54452;SDS011;40363;52.270;10.546;2022-07-30T00:01:48;4.70;;;2.30;;
54452;SDS011;40363;52.270;10.546;2022-07-30T00:04:16;3.83;;;2.42;;
54452;SDS011;40363;52.270;10.546;2022-07-30T00:06:43;5.00;;;2.00;;
54452;SDS011;40363;52.270;10.546;2022-07-30T00:09:09;7.18;;;1.85;;
54452;SDS011;40363;52.270;10.546;2022-07-30T00:11:36;7.15;;;2.38;;
54452;SDS011;40363;52.270;10.546;2022-07-30T00:14:02;3.72;;;2.30;;
54452;SDS011;40363;52.270;10.546;2022-07-30T00:16:29;5.32;;;2.10;;
54452;SDS011;40363;52.270;10.546;2022-07-30T00:18:56;3.20;;;2.33;;
54452;SDS011;40363;52.270;10.546;2022-07-30T00:21:24;4.32;;;2.30;;
54452;SDS011;40363;52.270;10.546;2022-07-30T00:23:50;3.88;;;1.90;;
54452;SDS011;40363;52.270;10.546;2022-07-30T00:26:17;7.57;;;2.72;;
54452;SDS011;40363;52.270;10.546;2022-07-30T00:28:44;6.75;;;2.55;;
54452;SDS011;40363;52.270;10.546;2022-07-30T00:31:10;4.65;;;2.08;;
54452;SDS011;40363;52.270;10.546;2022-07-30T00:33:37;4.15;;;2.15;;
54452;SDS011;40363;52.270;10.546;2022-07-30T00:36:04;3.70;;;2.22;;
54452;SDS011;40363;52.270;10.546;2022-07-30T00:38:32;7.85;;;2.40;;
54452;SDS011;40363;52.270;10.546;2022-07-30T00:40:59;2.75;;;2.40;;
54452;SDS011;40363;52.270;10.546;2022-07-30T00:43:25;3.85;;;2.00;;
54452;SDS011;40363;52.270;10.546;2022-07-30T00:45:52;3.47;;;2.28;;
54452;SDS011;40363;52.270;10.546;2022-07-30T00:48:18;2.80;;;1.73;;
54452;SDS011;40363;52.270;10.546;2022-07-30T00:50:45;5.43;;;2.25;;
54452;SDS011;40363;52.270;10.546;2022-07-30T00:53:12;5.60;;;2.53;;
54452;SDS011;40363;52.270;10.546;2022-07-30T00:55:40;3.42;;;2.30;;
54452;SDS011;40363;52.270;10.546;2022-07-30T00:58:06;6.78;;;2.35;;
54452;SDS011;40363;52.270;10.546;2022-07-30T01:00:33;6.95;;;3.33;;
54452;SDS011;40363;52.270;10.546;2022-07-30T01:03:00;4.43;;;2.15;;
54452;SDS011;40363;52.270;10.546;2022-07-30T01:05:26;5.13;;;2.50;;
54452;SDS011;40363;52.270;10.546;2022-07-30T01:07:53;7.82;;;2.15;;
54452;SDS011;40363;52.270;10.546;2022-07-30T01:10:20;4.00;;;2.08;;
54452;SDS011;40363;52.270;10.546;2022-07-30T01:12:48;5.57;;;2.67;;
54452;SDS011;40363;52.270;10.546;2022-07-30T01:15:16;4.53;;;2.53;;
54452;SDS011;40363;52.270;10.546;2022-07-30T01:17:43;5.03;;;2.08;;
54452;SDS011;40363;52.270;10.546;2022-07-30T01:20:14;2.42;;;1.80;;
54452;SDS011;40363;52.270;10.546;2022-07-30T01:22:44;4.20;;;2.33;;
54452;SDS011;40363;52.270;10.546;2022-07-30T01:25:19;5.35;;;2.38;;
54452;SDS011;40363;52.270;10.546;2022-07-30T01:27:55;5.85;;;2.40;;
54452;SDS011;40363;52.270;10.546;2022-07-30T01:30:26;9.15;;;3.05;;
54452;SDS011;40363;52.270;10.546;2022-07-30T01:32:55;6.18;;;3.20;;
54452;SDS011;40363;52.270;10.546;2022-07-30T01:35:23;7.95;;;2.90;;
54452;SDS011;40363;52.270;10.546;2022-07-30T01:37:53;7.35;;;3.17;;
54452;SDS011;40363;52.270;10.546;2022-07-30T01:40:21;10.52;;;3.53;;
54452;SDS011;40363;52.270;10.546;2022-07-30T01:42:51;6.00;;;3.10;;
54452;SDS011;40363;52.270;10.546;2022-07-30T01:45:20;5.97;;;3.45;;
54452;SDS011;40363;52.270;10.546;2022-07-30T01:47:49;9.57;;;3.53;;
54452;SDS011;40363;52.270;10.546;2022-07-30T01:50:18;6.90;;;3.15;;
54452;SDS011;40363;52.270;10.546;2022-07-30T01:52:46;5.93;;;3.65;;
54452;SDS011;40363;52.270;10.546;2022-07-30T01:55:16;7.00;;;3.92;;
54452;SDS011;40363;52.270;10.546;2022-07-30T01:57:46;8.90;;;3.65;;
54452;SDS011;40363;52.270;10.546;2022-07-30T02:00:14;8.05;;;3.40;;
54452;SDS011;40363;52.270;10.546;2022-07-30T02:02:43;8.20;;;3.50;;
54452;SDS011;40363;52.270;10.546;2022-07-30T02:05:10;9.95;;;3.85;;
54452;SDS011;40363;52.270;10.546;2022-07-30T02:07:39;8.77;;;3.75;;
54452;SDS011;40363;52.270;10.546;2022-07-30T02:10:12;6.68;;;3.45;;
54452;SDS011;40363;52.270;10.546;2022-07-30T02:12:42;12.05;;;3.58;;
54452;SDS011;40363;52.270;10.546;2022-07-30T02:15:14;4.90;;;3.30;;
54452;SDS011;40363;52.270;10.546;2022-07-30T02:17:51;4.88;;;3.22;;
54452;SDS011;40363;52.270;10.546;2022-07-30T02:20:23;6.73;;;3.67;;
54452;SDS011;40363;52.270;10.546;2022-07-30T02:22:53;5.10;;;3.25;;
54452;SDS011;40363;52.270;10.546;2022-07-30T02:27:51;12.45;;;3.22;;
54452;SDS011;40363;52.270;10.546;2022-07-30T02:30:22;5.90;;;3.25;;
54452;SDS011;40363;52.270;10.546;2022-07-30T02:32:53;9.38;;;4.65;;
54452;SDS011;40363;52.270;10.546;2022-07-30T02:35:24;4.28;;;3.28;;
54452;SDS011;40363;52.270;10.546;2022-07-30T02:37:54;8.95;;;3.80;;
54452;SDS011;40363;52.270;10.546;2022-07-30T02:40:22;6.47;;;4.10;;
54452;SDS011;40363;52.270;10.546;2022-07-30T02:42:50;5.18;;;3.88;;
54452;SDS011;40363;52.270;10.546;2022-07-30T02:45:19;5.57;;;4.00;;
54452;SDS011;40363;52.270;10.546;2022-07-30T02:47:50;4.75;;;3.75;;
54452;SDS011;40363;52.270;10.546;2022-07-30T02:50:22;8.45;;;4.07;;
54452;SDS011;40363;52.270;10.546;2022-07-30T02:52:50;8.80;;;4.55;;
54452;SDS011;40363;52.270;10.546;2022-07-30T02:55:19;6.95;;;4.40;;
54452;SDS011;40363;52.270;10.546;2022-07-30T02:57:47;7.50;;;4.43;;
54452;SDS011;40363;52.270;10.546;2022-07-30T03:00:17;9.45;;;4.25;;
54452;SDS011;40363;52.270;10.546;2022-07-30T03:02:44;7.22;;;4.50;;
54452;SDS011;40363;52.270;10.546;2022-07-30T03:05:13;8.80;;;4.55;;
54452;SDS011;40363;52.270;10.546;2022-07-30T03:07:41;9.43;;;5.32;;
54452;SDS011;40363;52.270;10.546;2022-07-30T03:10:09;8.20;;;4.60;;
54452;SDS011;40363;52.270;10.546;2022-07-30T03:12:37;10.63;;;5.28;;
54452;SDS011;40363;52.270;10.546;2022-07-30T03:15:06;9.98;;;4.82;;
54452;SDS011;40363;52.270;10.546;2022-07-30T03:17:36;7.53;;;5.40;;
54452;SDS011;40363;52.270;10.546;2022-07-30T03:20:05;8.23;;;5.25;;
54452;SDS011;40363;52.270;10.546;2022-07-30T03:22:37;9.80;;;5.30;;
54452;SDS011;40363;52.270;10.546;2022-07-30T03:25:06;8.02;;;4.88;;
54452;SDS011;40363;52.270;10.546;2022-07-30T03:27:37;6.68;;;5.05;;
54452;SDS011;40363;52.270;10.546;2022-07-30T03:30:05;11.50;;;5.35;;
54452;SDS011;40363;52.270;10.546;2022-07-30T03:32:33;6.63;;;5.18;;
54452;SDS011;40363;52.270;10.546;2022-07-30T03:35:01;9.18;;;5.25;;
54452;SDS011;40363;52.270;10.546;2022-07-30T03:37:29;11.80;;;5.38;;
54452;SDS011;40363;52.270;10.546;2022-07-30T03:39:58;10.85;;;5.13;;
54452;SDS011;40363;52.270;10.546;2022-07-30T03:42:25;8.68;;;4.72;;
54452;SDS011;40363;52.270;10.546;2022-07-30T03:44:53;8.32;;;4.32;;
54452;SDS011;40363;52.270;10.546;2022-07-30T03:47:21;8.25;;;4.57;;
54452;SDS011;40363;52.270;10.546;2022-07-30T03:49:49;11.27;;;4.95;;
54452;SDS011;40363;52.270;10.546;2022-07-30T03:52:17;12.95;;;5.00;;
54452;SDS011;40363;52.270;10.546;2022-07-30T03:54:45;11.40;;;5.40;;
54452;SDS011;40363;52.270;10.546;2022-07-30T03:57:14;10.02;;;5.45;;
54452;SDS011;40363;52.270;10.546;2022-07-30T03:59:40;8.73;;;5.80;;
54452;SDS011;40363;52.270;10.546;2022-07-30T04:02:07;8.13;;;5.63;;
54452;SDS011;40363;52.270;10.546;2022-07-30T04:04:34;8.43;;;5.40;;
54452;SDS011;40363;52.270;10.546;2022-07-30T04:07:01;7.57;;;5.05;;
54452;SDS011;40363;52.270;10.546;2022-07-30T04:09:27;7.65;;;4.90;;
54452;SDS011;40363;52.270;10.546;2022-07-30T04:11:54;8.32;;;5.15;;
54452;SDS011;40363;52.270;10.546;2022-07-30T04:14:22;7.35;;;4.32;;
54452;SDS011;40363;52.270;10.546;2022-07-30T04:16:51;8.07;;;5.03;;
54452;SDS011;40363;52.270;10.546;2022-07-30T04:21:53;6.18;;;4.60;;
54452;SDS011;40363;52.270;10.546;2022-07-30T04:24:22;10.20;;;4.70;;
54452;SDS011;40363;52.270;10.546;2022-07-30T04:26:50;6.20;;;4.60;;
54452;SDS011;40363;52.270;10.546;2022-07-30T04:29:17;10.60;;;6.57;;
54452;SDS011;40363;52.270;10.546;2022-07-30T04:31:46;7.60;;;4.82;;
54452;SDS011;40363;52.270;10.546;2022-07-30T04:34:13;9.18;;;5.30;;
54452;SDS011;40363;52.270;10.546;2022-07-30T04:36:40;9.43;;;5.28;;
54452;SDS011;40363;52.270;10.546;2022-07-30T04:39:07;7.97;;;4.70;;
54452;SDS011;40363;52.270;10.546;2022-07-30T04:41:35;6.13;;;4.40;;
54452;SDS011;40363;52.270;10.546;2022-07-30T04:44:02;7.95;;;4.90;;
54452;SDS011;40363;52.270;10.546;2022-07-30T04:46:28;8.45;;;5.35;;
54452;SDS011;40363;52.270;10.546;2022-07-30T04:48:57;9.30;;;4.85;;
54452;SDS011;40363;52.270;10.546;2022-07-30T04:51:25;7.15;;;4.68;;
54452;SDS011;40363;52.270;10.546;2022-07-30T04:53:54;9.60;;;5.43;;
54452;SDS011;40363;52.270;10.546;2022-07-30T04:56:22;7.57;;;5.00;;
54452;SDS011;40363;52.270;10.546;2022-07-30T04:58:51;6.30;;;5.07;;
54452;SDS011;40363;52.270;10.546;2022-07-30T05:01:21;5.85;;;4.30;;
54452;SDS011;40363;52.270;10.546;2022-07-30T05:03:50;7.47;;;4.80;;
54452;SDS011;40363;52.270;10.546;2022-07-30T05:06:19;5.88;;;4.03;;
54452;SDS011;40363;52.270;10.546;2022-07-30T05:08:47;7.72;;;4.50;;
54452;SDS011;40363;52.270;10.546;2022-07-30T05:11:14;10.60;;;5.25;;
54452;SDS011;40363;52.270;10.546;2022-07-30T05:13:41;5.72;;;4.63;;
54452;SDS011;40363;52.270;10.546;2022-07-30T05:16:08;8.15;;;5.18;;
54452;SDS011;40363;52.270;10.546;2022-07-30T05:18:35;8.95;;;5.50;;
54452;SDS011;40363;52.270;10.546;2022-07-30T05:21:02;7.28;;;5.13;;
54452;SDS011;40363;52.270;10.546;2022-07-30T05:23:31;10.10;;;5.72;;
54452;SDS011;40363;52.270;10.546;2022-07-30T05:25:58;9.20;;;4.70;;
54452;SDS011;40363;52.270;10.546;2022-07-30T05:28:24;7.28;;;5.43;;
54452;SDS011;40363;52.270;10.546;2022-07-30T05:30:51;9.43;;;5.53;;
54452;SDS011;40363;52.270;10.546;2022-07-30T05:33:18;8.43;;;4.93;;
54452;SDS011;40363;52.270;10.546;2022-07-30T05:35:45;8.32;;;5.15;;
54452;SDS011;40363;52.270;10.546;2022-07-30T05:38:12;9.18;;;5.30;;
54452;SDS011;40363;52.270;10.546;2022-07-30T05:40:40;6.03;;;4.93;;
54452;SDS011;40363;52.270;10.546;2022-07-30T05:43:07;7.50;;;5.35;;
54452;SDS011;40363;52.270;10.546;2022-07-30T05:45:33;7.50;;;4.55;;
54452;SDS011;40363;52.270;10.546;2022-07-30T05:48:00;8.75;;;4.90;;
54452;SDS011;40363;52.270;10.546;2022-07-30T05:50:27;9.82;;;5.15;;
54452;SDS011;40363;52.270;10.546;2022-07-30T05:52:53;5.38;;;4.68;;
54452;SDS011;40363;52.270;10.546;2022-07-30T05:55:22;6.57;;;4.70;;
54452;SDS011;40363;52.270;10.546;2022-07-30T05:57:50;9.57;;;5.22;;
54452;SDS011;40363;52.270;10.546;2022-07-30T06:00:17;6.82;;;4.90;;
54452;SDS011;40363;52.270;10.546;2022-07-30T06:02:44;7.90;;;4.45;;
54452;SDS011;40363;52.270;10.546;2022-07-30T06:05:10;8.43;;;4.90;;
54452;SDS011;40363;52.270;10.546;2022-07-30T06:07:37;9.60;;;5.13;;
54452;SDS011;40363;52.270;10.546;2022-07-30T06:10:04;6.55;;;4.85;;
54452;SDS011;40363;52.270;10.546;2022-07-30T06:12:31;11.18;;;5.22;;
54452;SDS011;40363;52.270;10.546;2022-07-30T06:14:59;8.43;;;5.65;;
54452;SDS011;40363;52.270;10.546;2022-07-30T06:17:26;6.90;;;4.43;;
54452;SDS011;40363;52.270;10.546;2022-07-30T06:19:52;7.10;;;4.78;;
54452;SDS011;40363;52.270;10.546;2022-07-30T06:22:19;6.93;;;4.78;;
54452;SDS011;40363;52.270;10.546;2022-07-30T06:24:46;6.10;;;4.97;;
54452;SDS011;40363;52.270;10.546;2022-07-30T06:27:12;6.25;;;4.82;;
54452;SDS011;40363;52.270;10.546;2022-07-30T06:29:39;7.55;;;5.15;;
54452;SDS011;40363;52.270;10.546;2022-07-30T06:32:07;7.70;;;4.80;;
54452;SDS011;40363;52.270;10.546;2022-07-30T06:34:34;8.20;;;5.03;;
54452;SDS011;40363;52.270;10.546;2022-07-30T06:37:01;6.53;;;4.35;;
54452;SDS011;40363;52.270;10.546;2022-07-30T06:39:27;9.00;;;4.30;;
54452;SDS011;40363;52.270;10.546;2022-07-30T06:41:54;8.32;;;5.38;;
54452;SDS011;40363;52.270;10.546;2022-07-30T06:44:21;5.63;;;4.80;;
54452;SDS011;40363;52.270;10.546;2022-07-30T06:46:47;8.63;;;5.05;;
54452;SDS011;40363;52.270;10.546;2022-07-30T06:49:15;7.35;;;5.00;;
54452;SDS011;40363;52.270;10.546;2022-07-30T06:51:42;5.38;;;4.50;;
54452;SDS011;40363;52.270;10.546;2022-07-30T06:54:09;6.82;;;4.85;;
54452;SDS011;40363;52.270;10.546;2022-07-30T06:56:36;7.70;;;5.78;;
54452;SDS011;40363;52.270;10.546;2022-07-30T06:59:03;5.43;;;4.60;;
54452;SDS011;40363;52.270;10.546;2022-07-30T07:01:29;7.63;;;5.07;;
54452;SDS011;40363;52.270;10.546;2022-07-30T07:03:56;8.50;;;5.10;;
54452;SDS011;40363;52.270;10.546;2022-07-30T07:06:24;7.22;;;4.85;;
54452;SDS011;40363;52.270;10.546;2022-07-30T07:08:51;8.63;;;5.43;;
54452;SDS011;40363;52.270;10.546;2022-07-30T07:11:17;6.80;;;5.07;;
54452;SDS011;40363;52.270;10.546;2022-07-30T07:13:44;8.10;;;5.13;;
54452;SDS011;40363;52.270;10.546;2022-07-30T07:16:11;7.00;;;5.80;;
54452;SDS011;40363;52.270;10.546;2022-07-30T07:18:37;6.55;;;4.95;;
54452;SDS011;40363;52.270;10.546;2022-07-30T07:21:04;7.78;;;5.30;;
54452;SDS011;40363;52.270;10.546;2022-07-30T07:23:33;6.18;;;4.35;;
54452;SDS011;40363;52.270;10.546;2022-07-30T07:26:00;5.68;;;5.05;;
54452;SDS011;40363;52.270;10.546;2022-07-30T07:28:27;6.70;;;5.07;;
54452;SDS011;40363;52.270;10.546;2022-07-30T07:30:53;6.00;;;4.82;;
54452;SDS011;40363;52.270;10.546;2022-07-30T07:33:20;8.75;;;5.13;;
54452;SDS011;40363;52.270;10.546;2022-07-30T07:35:47;8.43;;;5.25;;
54452;SDS011;40363;52.270;10.546;2022-07-30T07:38:13;8.43;;;4.70;;
54452;SDS011;40363;52.270;10.546;2022-07-30T07:40:41;5.78;;;4.68;;
54452;SDS011;40363;52.270;10.546;2022-07-30T07:43:08;4.75;;;4.35;;
54452;SDS011;40363;52.270;10.546;2022-07-30T07:45:35;8.40;;;5.13;;
54452;SDS011;40363;52.270;10.546;2022-07-30T07:48:01;5.35;;;3.60;;
54452;SDS011;40363;52.270;10.546;2022-07-30T07:50:28;4.38;;;3.92;;
54452;SDS011;40363;52.270;10.546;2022-07-30T07:52:55;5.13;;;4.00;;
54452;SDS011;40363;52.270;10.546;2022-07-30T07:55:22;5.88;;;3.67;;
54452;SDS011;40363;52.270;10.546;2022-07-30T07:57:50;6.25;;;3.85;;
54452;SDS011;40363;52.270;10.546;2022-07-30T08:00:17;4.10;;;3.50;;
54452;SDS011;40363;52.270;10.546;2022-07-30T08:02:44;5.50;;;3.58;;
54452;SDS011;40363;52.270;10.546;2022-07-30T08:05:11;5.78;;;3.20;;
54452;SDS011;40363;52.270;10.546;2022-07-30T08:07:38;4.65;;;2.90;;
54452;SDS011;40363;52.270;10.546;2022-07-30T08:10:06;4.65;;;3.35;;
54452;SDS011;40363;52.270;10.546;2022-07-30T08:12:34;6.18;;;3.38;;
54452;SDS011;40363;52.270;10.546;2022-07-30T08:15:02;4.43;;;3.20;;
54452;SDS011;40363;52.270;10.546;2022-07-30T08:17:30;2.97;;;2.65;;
54452;SDS011;40363;52.270;10.546;2022-07-30T08:19:57;4.43;;;2.70;;
54452;SDS011;40363;52.270;10.546;2022-07-30T08:22:25;4.13;;;2.83;;
54452;SDS011;40363;52.270;10.546;2022-07-30T08:24:52;3.90;;;3.00;;
54452;SDS011;40363;52.270;10.546;2022-07-30T08:27:18;5.60;;;2.85;;
54452;SDS011;40363;52.270;10.546;2022-07-30T08:29:45;5.22;;;3.03;;
54452;SDS011;40363;52.270;10.546;2022-07-30T08:32:13;4.97;;;3.20;;
54452;SDS011;40363;52.270;10.546;2022-07-30T08:34:40;4.47;;;2.70;;
54452;SDS011;40363;52.270;10.546;2022-07-30T08:37:06;4.43;;;3.22;;
54452;SDS011;40363;52.270;10.546;2022-07-30T08:39:33;4.18;;;3.13;;
54452;SDS011;40363;52.270;10.546;2022-07-30T08:42:00;4.95;;;3.15;;
54452;SDS011;40363;52.270;10.546;2022-07-30T08:44:28;4.10;;;2.97;;
54452;SDS011;40363;52.270;10.546;2022-07-30T08:46:56;4.05;;;3.30;;
54452;SDS011;40363;52.270;10.546;2022-07-30T08:49:26;5.90;;;3.30;;
54452;SDS011;40363;52.270;10.546;2022-07-30T08:51:53;4.53;;;3.58;;
54452;SDS011;40363;52.270;10.546;2022-07-30T08:54:20;4.47;;;3.10;;
54452;SDS011;40363;52.270;10.546;2022-07-30T08:56:47;5.40;;;3.55;;
54452;SDS011;40363;52.270;10.546;2022-07-30T08:59:15;5.05;;;3.97;;
54452;SDS011;40363;52.270;10.546;2022-07-30T09:01:42;4.85;;;3.97;;
54452;SDS011;40363;52.270;10.546;2022-07-30T09:04:09;5.55;;;3.50;;
54452;SDS011;40363;52.270;10.546;2022-07-30T09:06:37;5.05;;;3.75;;
54452;SDS011;40363;52.270;10.546;2022-07-30T09:09:05;9.00;;;3.95;;
54452;SDS011;40363;52.270;10.546;2022-07-30T09:11:32;5.57;;;3.78;;
54452;SDS011;40363;52.270;10.546;2022-07-30T09:14:03;4.07;;;3.67;;
54452;SDS011;40363;52.270;10.546;2022-07-30T09:16:34;5.22;;;3.33;;
54452;SDS011;40363;52.270;10.546;2022-07-30T09:19:10;7.25;;;3.65;;
54452;SDS011;40363;52.270;10.546;2022-07-30T09:21:39;5.93;;;3.45;;
54452;SDS011;40363;52.270;10.546;2022-07-30T09:24:07;4.35;;;3.45;;
54452;SDS011;40363;52.270;10.546;2022-07-30T09:26:50;6.78;;;4.07;;
54452;SDS011;40363;52.270;10.546;2022-07-30T09:29:20;8.85;;;3.92;;
54452;SDS011;40363;52.270;10.546;2022-07-30T09:31:54;3.55;;;3.20;;
54452;SDS011;40363;52.270;10.546;2022-07-30T09:34:23;5.90;;;3.25;;
54452;SDS011;40363;52.270;10.546;2022-07-30T09:36:55;5.03;;;3.63;;
54452;SDS011;40363;52.270;10.546;2022-07-30T09:39:27;4.85;;;3.20;;
54452;SDS011;40363;52.270;10.546;2022-07-30T09:41:57;4.97;;;3.65;;
54452;SDS011;40363;52.270;10.546;2022-07-30T09:44:25;4.18;;;3.65;;
54452;SDS011;40363;52.270;10.546;2022-07-30T09:46:54;5.20;;;3.13;;
54452;SDS011;40363;52.270;10.546;2022-07-30T09:49:21;4.70;;;3.17;;
54452;SDS011;40363;52.270;10.546;2022-07-30T09:51:50;4.43;;;2.83;;
54452;SDS011;40363;52.270;10.546;2022-07-30T09:54:19;6.75;;;3.50;;
54452;SDS011;40363;52.270;10.546;2022-07-30T09:56:45;3.53;;;3.08;;
54452;SDS011;40363;52.270;10.546;2022-07-30T09:59:25;3.22;;;2.72;;
54452;SDS011;40363;52.270;10.546;2022-07-30T10:01:52;5.35;;;2.88;;
54452;SDS011;40363;52.270;10.546;2022-07-30T10:04:23;4.80;;;3.30;;
54452;SDS011;40363;52.270;10.546;2022-07-30T10:06:51;3.72;;;3.00;;
54452;SDS011;40363;52.270;10.546;2022-07-30T10:09:26;5.22;;;3.00;;
54452;SDS011;40363;52.270;10.546;2022-07-30T10:11:54;5.60;;;3.00;;
54452;SDS011;40363;52.270;10.546;2022-07-30T10:14:23;5.10;;;2.85;;
54452;SDS011;40363;52.270;10.546;2022-07-30T10:16:53;2.83;;;2.53;;
54452;SDS011;40363;52.270;10.546;2022-07-30T10:19:20;4.75;;;2.75;;
54452;SDS011;40363;52.270;10.546;2022-07-30T10:21:48;5.18;;;2.95;;
54452;SDS011;40363;52.270;10.546;2022-07-30T10:24:15;4.22;;;2.85;;
54452;SDS011;40363;52.270;10.546;2022-07-30T10:26:44;4.93;;;2.83;;
54452;SDS011;40363;52.270;10.546;2022-07-30T10:29:11;2.97;;;2.53;;
54452;SDS011;40363;52.270;10.546;2022-07-30T10:31:40;5.18;;;3.13;;
54452;SDS011;40363;52.270;10.546;2022-07-30T10:34:07;4.90;;;2.40;;
54452;SDS011;40363;52.270;10.546;2022-07-30T10:36:34;6.90;;;6.13;;
54452;SDS011;40363;52.270;10.546;2022-07-30T10:39:02;5.53;;;4.13;;
54452;SDS011;40363;52.270;10.546;2022-07-30T10:41:34;3.38;;;2.38;;
54452;SDS011;40363;52.270;10.546;2022-07-30T10:44:18;2.83;;;2.30;;
54452;SDS011;40363;52.270;10.546;2022-07-30T10:46:59;4.30;;;2.28;;
54452;SDS011;40363;52.270;10.546;2022-07-30T10:49:27;2.20;;;2.00;;
54452;SDS011;40363;52.270;10.546;2022-07-30T10:51:54;4.70;;;2.30;;
54452;SDS011;40363;52.270;10.546;2022-07-30T10:54:37;3.60;;;2.20;;
54452;SDS011;40363;52.270;10.546;2022-07-30T10:57:06;3.78;;;2.78;;
54452;SDS011;40363;52.270;10.546;2022-07-30T11:02:37;3.35;;;2.47;;
54452;SDS011;40363;52.270;10.546;2022-07-30T11:05:20;5.00;;;2.35;;
54452;SDS011;40363;52.270;10.546;2022-07-30T11:07:48;3.92;;;2.65;;
54452;SDS011;40363;52.270;10.546;2022-07-30T11:15:50;3.22;;;2.53;;
54452;SDS011;40363;52.270;10.546;2022-07-30T11:18:18;2.92;;;2.42;;
54452;SDS011;40363;52.270;10.546;2022-07-30T11:23:39;3.80;;;2.53;;
54452;SDS011;40363;52.270;10.546;2022-07-30T11:26:06;2.97;;;2.50;;
54452;SDS011;40363;52.270;10.546;2022-07-30T11:28:34;3.95;;;2.58;;
54452;SDS011;40363;52.270;10.546;2022-07-30T11:33:53;3.53;;;2.50;;
54452;SDS011;40363;52.270;10.546;2022-07-30T11:37:02;3.55;;;2.40;;
54452;SDS011;40363;52.270;10.546;2022-07-30T11:42:23;3.58;;;2.50;;
54452;SDS011;40363;52.270;10.546;2022-07-30T11:44:51;3.05;;;2.75;;
54452;SDS011;40363;52.270;10.546;2022-07-30T11:47:20;4.60;;;2.97;;
54452;SDS011;40363;52.270;10.546;2022-07-30T11:49:53;4.47;;;2.88;;
54452;SDS011;40363;52.270;10.546;2022-07-30T11:52:21;3.95;;;2.80;;
54452;SDS011;40363;52.270;10.546;2022-07-30T11:54:51;3.17;;;2.53;;
54452;SDS011;40363;52.270;10.546;2022-07-30T11:57:18;3.75;;;2.85;;
54452;SDS011;40363;52.270;10.546;2022-07-30T11:59:54;3.47;;;2.70;;
54452;SDS011;40363;52.270;10.546;2022-07-30T12:02:26;3.45;;;2.47;;
54452;SDS011;40363;52.270;10.546;2022-07-30T12:04:53;2.40;;;2.20;;
54452;SDS011;40363;52.270;10.546;2022-07-30T12:07:20;2.65;;;2.42;;
54452;SDS011;40363;52.270;10.546;2022-07-30T12:09:48;3.53;;;2.40;;
54452;SDS011;40363;52.270;10.546;2022-07-30T12:12:21;3.00;;;2.42;;
54452;SDS011;40363;52.270;10.546;2022-07-30T12:14:48;5.57;;;2.63;;
54452;SDS011;40363;52.270;10.546;2022-07-30T12:17:15;3.78;;;2.55;;
54452;SDS011;40363;52.270;10.546;2022-07-30T12:19:44;3.38;;;2.58;;
54452;SDS011;40363;52.270;10.546;2022-07-30T12:22:11;5.03;;;2.60;;
54452;SDS011;40363;52.270;10.546;2022-07-30T12:24:38;2.97;;;2.65;;
54452;SDS011;40363;52.270;10.546;2022-07-30T12:27:05;2.92;;;2.63;;
54452;SDS011;40363;52.270;10.546;2022-07-30T12:29:32;4.35;;;2.42;;
54452;SDS011;40363;52.270;10.546;2022-07-30T12:32:00;2.88;;;2.28;;
54452;SDS011;40363;52.270;10.546;2022-07-30T12:34:27;4.45;;;2.47;;
54452;SDS011;40363;52.270;10.546;2022-07-30T12:36:55;2.80;;;2.50;;
54452;SDS011;40363;52.270;10.546;2022-07-30T12:39:32;2.78;;;2.42;;
54452;SDS011;40363;52.270;10.546;2022-07-30T12:41:59;3.75;;;2.55;;
54452;SDS011;40363;52.270;10.546;2022-07-30T12:44:34;2.80;;;2.30;;
54452;SDS011;40363;52.270;10.546;2022-07-30T12:47:03;4.28;;;2.80;;
54452;SDS011;40363;52.270;10.546;2022-07-30T12:49:31;3.13;;;2.83;;
54452;SDS011;40363;52.270;10.546;2022-07-30T12:51:59;3.35;;;2.47;;
54452;SDS011;40363;52.270;10.546;2022-07-30T12:54:26;2.55;;;2.15;;
54452;SDS011;40363;52.270;10.546;2022-07-30T12:56:57;2.80;;;2.50;;
54452;SDS011;40363;52.270;10.546;2022-07-30T12:59:25;4.72;;;2.83;;
54452;SDS011;40363;52.270;10.546;2022-07-30T13:01:53;3.20;;;2.80;;
54452;SDS011;40363;52.270;10.546;2022-07-30T13:04:21;4.38;;;2.65;;
54452;SDS011;40363;52.270;10.546;2022-07-30T13:07:06;2.90;;;2.58;;
54452;SDS011;40363;52.270;10.546;2022-07-30T13:09:35;4.50;;;2.63;;
54452;SDS011;40363;52.270;10.546;2022-07-30T13:12:02;2.58;;;2.38;;
54452;SDS011;40363;52.270;10.546;2022-07-30T13:14:30;2.33;;;2.13;;
54452;SDS011;40363;52.270;10.546;2022-07-30T13:16:56;4.28;;;3.13;;
54452;SDS011;40363;52.270;10.546;2022-07-30T13:19:23;4.45;;;2.97;;
54452;SDS011;40363;52.270;10.546;2022-07-30T13:21:52;7.30;;;3.10;;
54452;SDS011;40363;52.270;10.546;2022-07-30T13:24:20;5.03;;;2.88;;
54452;SDS011;40363;52.270;10.546;2022-07-30T13:26:47;4.43;;;2.95;;
54452;SDS011;40363;52.270;10.546;2022-07-30T13:29:13;5.20;;;3.08;;
54452;SDS011;40363;52.270;10.546;2022-07-30T13:31:40;3.20;;;2.70;;
54452;SDS011;40363;52.270;10.546;2022-07-30T13:34:07;3.95;;;3.10;;
54452;SDS011;40363;52.270;10.546;2022-07-30T13:36:34;3.42;;;3.08;;
54452;SDS011;40363;52.270;10.546;2022-07-30T13:39:00;3.47;;;2.83;;
54452;SDS011;40363;52.270;10.546;2022-07-30T13:41:28;4.22;;;3.03;;
54452;SDS011;40363;52.270;10.546;2022-07-30T13:43:55;4.90;;;2.90;;
54452;SDS011;40363;52.270;10.546;2022-07-30T13:46:22;4.28;;;2.90;;
54452;SDS011;40363;52.270;10.546;2022-07-30T13:48:48;3.45;;;3.05;;
54452;SDS011;40363;52.270;10.546;2022-07-30T13:51:15;2.90;;;2.60;;
54452;SDS011;40363;52.270;10.546;2022-07-30T13:53:42;5.05;;;2.88;;
54452;SDS011;40363;52.270;10.546;2022-07-30T13:56:09;3.72;;;3.00;;
54452;SDS011;40363;52.270;10.546;2022-07-30T13:58:37;2.50;;;2.30;;
54452;SDS011;40363;52.270;10.546;2022-07-30T14:01:04;3.88;;;2.80;;
54452;SDS011;40363;52.270;10.546;2022-07-30T14:03:31;7.18;;;2.42;;
54452;SDS011;40363;52.270;10.546;2022-07-30T14:05:58;4.72;;;2.97;;
54452;SDS011;40363;52.270;10.546;2022-07-30T14:08:24;4.90;;;2.90;;
54452;SDS011;40363;52.270;10.546;2022-07-30T14:10:52;3.08;;;2.78;;
54452;SDS011;40363;52.270;10.546;2022-07-30T14:13:19;5.88;;;2.30;;
54452;SDS011;40363;52.270;10.546;2022-07-30T14:15:47;3.75;;;2.50;;
54452;SDS011;40363;52.270;10.546;2022-07-30T14:18:14;4.35;;;2.30;;
54452;SDS011;40363;52.270;10.546;2022-07-30T14:20:41;3.13;;;2.45;;
54452;SDS011;40363;52.270;10.546;2022-07-30T14:23:07;4.78;;;2.58;;
54452;SDS011;40363;52.270;10.546;2022-07-30T14:25:34;3.25;;;2.45;;
54452;SDS011;40363;52.270;10.546;2022-07-30T14:28:01;2.85;;;2.30;;
54452;SDS011;40363;52.270;10.546;2022-07-30T14:30:27;4.43;;;2.42;;
54452;SDS011;40363;52.270;10.546;2022-07-30T14:32:55;2.97;;;2.15;;
54452;SDS011;40363;52.270;10.546;2022-07-30T14:35:22;2.50;;;2.30;;
54452;SDS011;40363;52.270;10.546;2022-07-30T14:37:48;4.00;;;2.53;;
54452;SDS011;40363;52.270;10.546;2022-07-30T14:40:15;5.72;;;2.33;;
54452;SDS011;40363;52.270;10.546;2022-07-30T14:42:42;3.67;;;2.70;;
54452;SDS011;40363;52.270;10.546;2022-07-30T14:45:08;4.55;;;2.58;;
54452;SDS011;40363;52.270;10.546;2022-07-30T14:47:36;2.50;;;2.30;;
54452;SDS011;40363;52.270;10.546;2022-07-30T14:50:05;2.90;;;2.60;;
54452;SDS011;40363;52.270;10.546;2022-07-30T14:52:33;3.08;;;2.42;;
54452;SDS011;40363;52.270;10.546;2022-07-30T14:55:02;2.92;;;2.63;;
54452;SDS011;40363;52.270;10.546;2022-07-30T14:57:30;2.85;;;2.50;;
54452;SDS011;40363;52.270;10.546;2022-07-30T14:59:56;4.45;;;2.05;;
54452;SDS011;40363;52.270;10.546;2022-07-30T15:02:23;3.17;;;2.20;;